sensor_id;sensor_type;location;lat;lon;timestamp;pressure;altitude;pressure_sealevel;temperature;humidity
54407;BME280;40313;50.308;30.374;2022-12-07T00:01:26;99901.03;;;-5.68;100.00
54407;BME280;40313;50.308;30.374;2022-12-07T00:03:55;99903.59;;;-5.67;100.00
54407;BME280;40313;50.308;30.374;2022-12-07T00:06:25;99910.44;;;-5.63;100.00
54407;BME280;40313;50.308;30.374;2022-12-07T00:08:52;99899.41;;;-5.62;100.00
54407;BME280;40313;50.308;30.374;2022-12-07T00:11:20;99887.59;;;-5.58;100.00
54407;BME280;40313;50.308;30.374;2022-12-07T00:13:51;99895.22;;;-5.60;100.00
54407;BME280;40313;50.308;30.374;2022-12-07T00:16:19;99899.50;;;-5.57;100.00
54407;BME280;40313;50.308;30.374;2022-12-07T00:18:48;99900.31;;;-5.58;100.00
54407;BME280;40313;50.308;30.374;2022-12-07T00:21:16;99897.81;;;-5.55;100.00
54407;BME280;40313;50.308;30.374;2022-12-07T00:23:44;99891.09;;;-5.51;100.00
54407;BME280;40313;50.308;30.374;2022-12-07T00:26:12;99893.63;;;-5.51;100.00
54407;BME280;40313;50.308;30.374;2022-12-07T00:28:39;99887.69;;;-5.50;100.00
54407;BME280;40313;50.308;30.374;2022-12-07T00:31:08;99882.63;;;-5.49;100.00
54407;BME280;40313;50.308;30.374;2022-12-07T00:33:35;99883.53;;;-5.45;100.00
54407;BME280;40313;50.308;30.374;2022-12-07T00:36:07;99885.22;;;-5.46;100.00
54407;BME280;40313;50.308;30.374;2022-12-07T00:38:35;99877.66;;;-5.41;100.00
54407;BME280;40313;50.308;30.374;2022-12-07T00:41:04;99875.94;;;-5.42;100.00
54407;BME280;40313;50.308;30.374;2022-12-07T00:43:31;99881.06;;;-5.39;100.00
54407;BME280;40313;50.308;30.374;2022-12-07T00:45:58;99869.25;;;-5.35;100.00
54407;BME280;40313;50.308;30.374;2022-12-07T00:48:25;99872.66;;;-5.33;100.00
54407;BME280;40313;50.308;30.374;2022-12-07T00:50:51;99868.38;;;-5.34;100.00
54407;BME280;40313;50.308;30.374;2022-12-07T00:53:19;99866.75;;;-5.31;100.00
54407;BME280;40313;50.308;30.374;2022-12-07T00:55:46;99859.97;;;-5.30;100.00
54407;BME280;40313;50.308;30.374;2022-12-07T00:58:12;99864.22;;;-5.29;100.00
54407;BME280;40313;50.308;30.374;2022-12-07T01:00:41;99858.31;;;-5.27;100.00
54407;BME280;40313;50.308;30.374;2022-12-07T01:03:09;99849.88;;;-5.26;100.00
54407;BME280;40313;50.308;30.374;2022-12-07T02:33:31;99783.63;;;-5.36;100.00
54407;BME280;40313;50.308;30.374;2022-12-07T02:36:04;99784.47;;;-5.34;100.00
54407;BME280;40313;50.308;30.374;2022-12-07T02:38:37;99783.66;;;-5.32;100.00
54407;BME280;40313;50.308;30.374;2022-12-07T02:41:09;99776.94;;;-5.28;100.00
54407;BME280;40313;50.308;30.374;2022-12-07T02:43:39;99771.03;;;-5.27;100.00
54407;BME280;40313;50.308;30.374;2022-12-07T02:46:10;99769.34;;;-5.25;100.00
54407;BME280;40313;50.308;30.374;2022-12-07T02:48:41;99771.06;;;-5.23;100.00
54407;BME280;40313;50.308;30.374;2022-12-07T02:51:09;99774.47;;;-5.21;100.00
54407;BME280;40313;50.308;30.374;2022-12-07T02:53:38;99767.72;;;-5.17;100.00
54407;BME280;40313;50.308;30.374;2022-12-07T02:56:10;99766.88;;;-5.16;100.00
54407;BME280;40313;50.308;30.374;2022-12-07T02:58:47;99763.50;;;-5.13;100.00
54407;BME280;40313;50.308;30.374;2022-12-07T03:01:27;99759.28;;;-5.13;100.00
54407;BME280;40313;50.308;30.374;2022-12-07T03:04:02;99754.19;;;-5.14;100.00
54407;BME280;40313;50.308;30.374;2022-12-07T03:06:37;99755.06;;;-5.11;100.00
54407;BME280;40313;50.308;30.374;2022-12-07T03:09:13;99753.34;;;-5.12;100.00
54407;BME280;40313;50.308;30.374;2022-12-07T03:11:45;99748.28;;;-5.09;100.00
54407;BME280;40313;50.308;30.374;2022-12-07T03:14:17;99750.81;;;-5.09;100.00
54407;BME280;40313;50.308;30.374;2022-12-07T03:16:49;99747.44;;;-5.08;100.00
54407;BME280;40313;50.308;30.374;2022-12-07T03:19:20;99750.88;;;-5.06;100.00
54407;BME280;40313;50.308;30.374;2022-12-07T03:21:49;99744.94;;;-5.05;100.00
54407;BME280;40313;50.308;30.374;2022-12-07T03:24:19;99740.72;;;-5.03;100.00
54407;BME280;40313;50.308;30.374;2022-12-07T03:26:50;99739.91;;;-5.01;100.00
54407;BME280;40313;50.308;30.374;2022-12-07T03:29:19;99739.03;;;-5.00;100.00
54407;BME280;40313;50.308;30.374;2022-12-07T03:31:50;99726.31;;;-5.00;100.00
54407;BME280;40313;50.308;30.374;2022-12-07T03:34:21;99733.94;;;-5.00;100.00
54407;BME280;40313;50.308;30.374;2022-12-07T03:36:52;99731.41;;;-4.99;100.00
54407;BME280;40313;50.308;30.374;2022-12-07T03:39:21;99723.78;;;-4.97;100.00
54407;BME280;40313;50.308;30.374;2022-12-07T03:41:49;99722.97;;;-4.96;100.00
54407;BME280;40313;50.308;30.374;2022-12-07T03:44:17;99724.69;;;-4.94;100.00
54407;BME280;40313;50.308;30.374;2022-12-07T03:46:44;99717.03;;;-4.94;100.00
54407;BME280;40313;50.308;30.374;2022-12-07T03:49:16;99700.03;;;-5.03;100.00
54407;BME280;40313;50.308;30.374;2022-12-07T03:51:46;99721.31;;;-4.91;100.00
54407;BME280;40313;50.308;30.374;2022-12-07T03:54:15;99713.69;;;-4.93;100.00
54407;BME280;40313;50.308;30.374;2022-12-07T03:56:45;99701.78;;;-4.92;100.00
54407;BME280;40313;50.308;30.374;2022-12-07T03:59:12;99712.81;;;-4.92;100.00
54407;BME280;40313;50.308;30.374;2022-12-07T04:01:41;99706.88;;;-4.92;100.00
54407;BME280;40313;50.308;30.374;2022-12-07T04:04:07;99699.25;;;-4.94;100.00
54407;BME280;40313;50.308;30.374;2022-12-07T04:06:33;99696.69;;;-4.94;100.00
54407;BME280;40313;50.308;30.374;2022-12-07T04:09:01;99698.41;;;-4.93;100.00
54407;BME280;40313;50.308;30.374;2022-12-07T04:11:27;99691.63;;;-4.92;100.00
54407;BME280;40313;50.308;30.374;2022-12-07T04:13:54;99695.00;;;-4.92;100.00
54407;BME280;40313;50.308;30.374;2022-12-07T04:16:38;99691.63;;;-4.89;100.00
54407;BME280;40313;50.308;30.374;2022-12-07T04:19:04;99695.88;;;-4.88;100.00
54407;BME280;40313;50.308;30.374;2022-12-07T04:21:30;99696.75;;;-4.86;100.00
54407;BME280;40313;50.308;30.374;2022-12-07T04:23:57;99695.06;;;-4.84;100.00
54407;BME280;40313;50.308;30.374;2022-12-07T04:26:24;99684.91;;;-4.84;100.00
54407;BME280;40313;50.308;30.374;2022-12-07T04:28:51;99681.47;;;-4.83;100.00
54407;BME280;40313;50.308;30.374;2022-12-07T04:31:17;99683.19;;;-4.82;100.00
54407;BME280;40313;50.308;30.374;2022-12-07T04:33:43;99679.84;;;-4.76;100.00
54407;BME280;40313;50.308;30.374;2022-12-07T04:36:10;99684.94;;;-4.75;100.00
54407;BME280;40313;50.308;30.374;2022-12-07T04:38:36;99677.31;;;-4.75;100.00
54407;BME280;40313;50.308;30.374;2022-12-07T04:41:04;99682.41;;;-4.73;100.00
54407;BME280;40313;50.308;30.374;2022-12-07T04:43:32;99681.56;;;-4.74;100.00
54407;BME280;40313;50.308;30.374;2022-12-07T04:45:58;99680.72;;;-4.73;100.00
54407;BME280;40313;50.308;30.374;2022-12-07T04:48:24;99682.41;;;-4.72;100.00
54407;BME280;40313;50.308;30.374;2022-12-07T04:50:51;99678.19;;;-4.71;100.00
54407;BME280;40313;50.308;30.374;2022-12-07T04:53:17;99673.09;;;-4.70;100.00
54407;BME280;40313;50.308;30.374;2022-12-07T04:55:43;99670.56;;;-4.73;100.00
54407;BME280;40313;50.308;30.374;2022-12-07T04:58:10;99666.31;;;-4.72;100.00
54407;BME280;40313;50.308;30.374;2022-12-07T05:00:38;99665.47;;;-4.73;100.00
54407;BME280;40313;50.308;30.374;2022-12-07T05:03:04;99665.47;;;-4.70;100.00
54407;BME280;40313;50.308;30.374;2022-12-07T05:05:30;99660.38;;;-4.68;100.00
54407;BME280;40313;50.308;30.374;2022-12-07T05:07:57;99661.22;;;-4.68;100.00
54407;BME280;40313;50.308;30.374;2022-12-07T05:10:23;99653.59;;;-4.68;100.00
54407;BME280;40313;50.308;30.374;2022-12-07T05:12:49;99659.56;;;-4.69;100.00
54407;BME280;40313;50.308;30.374;2022-12-07T05:15:16;99661.22;;;-4.68;100.00
54407;BME280;40313;50.308;30.374;2022-12-07T05:17:44;99656.13;;;-4.69;100.00
54407;BME280;40313;50.308;30.374;2022-12-07T05:20:11;99657.84;;;-4.70;100.00
54407;BME280;40313;50.308;30.374;2022-12-07T05:22:37;99659.56;;;-4.69;100.00
54407;BME280;40313;50.308;30.374;2022-12-07T05:25:04;99657.84;;;-4.70;100.00
54407;BME280;40313;50.308;30.374;2022-12-07T05:27:30;99654.41;;;-4.70;100.00
54407;BME280;40313;50.308;30.374;2022-12-07T05:29:56;99655.31;;;-4.68;100.00
54407;BME280;40313;50.308;30.374;2022-12-07T05:32:23;99652.75;;;-4.68;100.00
54407;BME280;40313;50.308;30.374;2022-12-07T05:34:50;99657.84;;;-4.66;100.00
54407;BME280;40313;50.308;30.374;2022-12-07T05:37:19;99656.16;;;-4.66;100.00
54407;BME280;40313;50.308;30.374;2022-12-07T05:39:46;99659.56;;;-4.65;100.00
54407;BME280;40313;50.308;30.374;2022-12-07T05:42:12;99659.56;;;-4.65;100.00
54407;BME280;40313;50.308;30.374;2022-12-07T05:44:37;99662.13;;;-4.62;100.00
54407;BME280;40313;50.308;30.374;2022-12-07T05:47:04;99668.03;;;-4.63;100.00
54407;BME280;40313;50.308;30.374;2022-12-07T05:49:30;99669.75;;;-4.65;100.00
54407;BME280;40313;50.308;30.374;2022-12-07T05:51:58;99662.94;;;-4.63;100.00
54407;BME280;40313;50.308;30.374;2022-12-07T05:54:24;99663.81;;;-4.63;100.00
54407;BME280;40313;50.308;30.374;2022-12-07T05:56:51;99662.94;;;-4.63;100.00
54407;BME280;40313;50.308;30.374;2022-12-07T05:59:17;99657.88;;;-4.62;100.00
54407;BME280;40313;50.308;30.374;2022-12-07T06:01:48;99665.50;;;-4.59;100.00
54407;BME280;40313;50.308;30.374;2022-12-07T06:04:15;99667.22;;;-4.58;100.00
54407;BME280;40313;50.308;30.374;2022-12-07T06:06:41;99663.84;;;-4.55;100.00
54407;BME280;40313;50.308;30.374;2022-12-07T06:09:09;99664.69;;;-4.55;100.00
54407;BME280;40313;50.308;30.374;2022-12-07T06:11:35;99664.69;;;-4.53;100.00
54407;BME280;40313;50.308;30.374;2022-12-07T06:14:19;99663.03;;;-4.51;100.00
54407;BME280;40313;50.308;30.374;2022-12-07T06:16:46;99667.28;;;-4.48;100.00
54407;BME280;40313;50.308;30.374;2022-12-07T06:19:12;99668.13;;;-4.48;100.00
54407;BME280;40313;50.308;30.374;2022-12-07T06:21:39;99659.66;;;-4.47;100.00
54407;BME280;40313;50.308;30.374;2022-12-07T06:24:05;99659.66;;;-4.44;100.00
54407;BME280;40313;50.308;30.374;2022-12-07T06:26:33;99659.66;;;-4.44;100.00
54407;BME280;40313;50.308;30.374;2022-12-07T06:28:59;99657.13;;;-4.42;100.00
54407;BME280;40313;50.308;30.374;2022-12-07T06:31:26;99656.28;;;-4.43;100.00
54407;BME280;40313;50.308;30.374;2022-12-07T06:33:56;99658.03;;;-4.37;100.00
54407;BME280;40313;50.308;30.374;2022-12-07T06:36:22;99652.94;;;-4.34;100.00
54407;BME280;40313;50.308;30.374;2022-12-07T06:38:49;99663.13;;;-4.29;100.00
54407;BME280;40313;50.308;30.374;2022-12-07T06:41:15;99659.75;;;-4.25;100.00
54407;BME280;40313;50.308;30.374;2022-12-07T06:43:43;99655.50;;;-4.22;100.00
54407;BME280;40313;50.308;30.374;2022-12-07T10:51:58;99488.25;;;-1.80;100.00
54407;BME280;40313;50.308;30.374;2022-12-07T10:54:33;99495.19;;;-1.93;100.00
54407;BME280;40313;50.308;30.374;2022-12-07T10:57:18;99498.56;;;-1.91;100.00
54407;BME280;40313;50.308;30.374;2022-12-07T11:00:04;99495.19;;;-1.93;100.00
54407;BME280;40313;50.308;30.374;2022-12-07T11:05:33;99499.47;;;-1.98;100.00
54407;BME280;40313;50.308;30.374;2022-12-07T11:08:16;99490.09;;;-2.00;100.00
54407;BME280;40313;50.308;30.374;2022-12-07T11:10:51;99500.38;;;-2.06;100.00
54407;BME280;40313;50.308;30.374;2022-12-07T11:13:22;99488.47;;;-2.08;100.00
54407;BME280;40313;50.308;30.374;2022-12-07T11:16:02;99481.63;;;-2.04;100.00
54407;BME280;40313;50.308;30.374;2022-12-07T11:18:35;99485.06;;;-2.06;100.00
54407;BME280;40313;50.308;30.374;2022-12-07T11:21:09;99474.81;;;-2.03;100.00
54407;BME280;40313;50.308;30.374;2022-12-07T11:23:47;99479.91;;;-2.03;100.00
54407;BME280;40313;50.308;30.374;2022-12-07T11:26:27;99479.06;;;-2.04;100.00
54407;BME280;40313;50.308;30.374;2022-12-07T11:29:13;99479.09;;;-2.10;100.00
54407;BME280;40313;50.308;30.374;2022-12-07T11:31:53;99479.09;;;-2.10;100.00
54407;BME280;40313;50.308;30.374;2022-12-07T11:34:28;99487.56;;;-2.02;100.00
54407;BME280;40313;50.308;30.374;2022-12-07T11:37:01;99485.91;;;-2.03;100.00
54407;BME280;40313;50.308;30.374;2022-12-07T11:39:35;99479.91;;;-2.02;100.00
54407;BME280;40313;50.308;30.374;2022-12-07T11:42:06;99483.31;;;-2.01;100.00
54407;BME280;40313;50.308;30.374;2022-12-07T11:44:43;99475.63;;;-2.00;100.00
54407;BME280;40313;50.308;30.374;2022-12-07T11:47:17;99484.13;;;-1.98;100.00
54407;BME280;40313;50.308;30.374;2022-12-07T11:49:53;99479.88;;;-1.99;100.00
54407;BME280;40313;50.308;30.374;2022-12-07T11:52:25;99484.16;;;-2.02;100.00
54407;BME280;40313;50.308;30.374;2022-12-07T11:54:57;99479.00;;;-1.98;100.00
54407;BME280;40313;50.308;30.374;2022-12-07T11:57:30;99472.22;;;-2.02;100.00
54407;BME280;40313;50.308;30.374;2022-12-07T12:00:03;99478.25;;;-2.09;100.00
54407;BME280;40313;50.308;30.374;2022-12-07T12:02:35;99476.53;;;-2.05;100.00
54407;BME280;40313;50.308;30.374;2022-12-07T12:05:13;99477.41;;;-2.08;100.00
54407;BME280;40313;50.308;30.374;2022-12-07T12:07:43;99479.13;;;-2.12;100.00
54407;BME280;40313;50.308;30.374;2022-12-07T12:10:18;99484.25;;;-2.16;100.00
54407;BME280;40313;50.308;30.374;2022-12-07T12:12:57;99486.78;;;-2.13;100.00
54407;BME280;40313;50.308;30.374;2022-12-07T12:15:47;99482.56;;;-2.16;100.00
54407;BME280;40313;50.308;30.374;2022-12-07T12:18:29;99486.84;;;-2.19;100.00
54407;BME280;40313;50.308;30.374;2022-12-07T12:21:04;99480.91;;;-2.21;100.00
54407;BME280;40313;50.308;30.374;2022-12-07T12:23:37;99482.56;;;-2.17;100.00
54407;BME280;40313;50.308;30.374;2022-12-07T12:26:14;99489.41;;;-2.19;100.00
54407;BME280;40313;50.308;30.374;2022-12-07T12:28:50;99491.94;;;-2.18;100.00
54407;BME280;40313;50.308;30.374;2022-12-07T12:31:32;99490.25;;;-2.20;100.00
54407;BME280;40313;50.308;30.374;2022-12-07T12:34:03;99491.97;;;-2.21;100.00
54407;BME280;40313;50.308;30.374;2022-12-07T12:36:44;99484.31;;;-2.22;100.00
54407;BME280;40313;50.308;30.374;2022-12-07T12:39:12;99486.84;;;-2.18;100.00
54407;BME280;40313;50.308;30.374;2022-12-07T12:41:57;99491.94;;;-2.18;100.00
54407;BME280;40313;50.308;30.374;2022-12-07T12:47:41;99485.16;;;-2.22;100.00
54407;BME280;40313;50.308;30.374;2022-12-07T12:50:16;99488.56;;;-2.20;100.00
54407;BME280;40313;50.308;30.374;2022-12-07T12:52:51;99486.88;;;-2.21;100.00
54407;BME280;40313;50.308;30.374;2022-12-07T12:55:21;99487.75;;;-2.25;100.00
54407;BME280;40313;50.308;30.374;2022-12-07T13:03:55;99494.59;;;-2.29;100.00
54407;BME280;40313;50.308;30.374;2022-12-07T13:06:34;99494.59;;;-2.29;100.00
54407;BME280;40313;50.308;30.374;2022-12-07T13:09:03;99495.47;;;-2.33;100.00
54407;BME280;40313;50.308;30.374;2022-12-07T13:11:32;99494.59;;;-2.29;100.00
54407;BME280;40313;50.308;30.374;2022-12-07T13:17:08;99490.38;;;-2.39;100.00
54407;BME280;40313;50.308;30.374;2022-12-07T13:20:00;99486.13;;;-2.40;100.00
54407;BME280;40313;50.308;30.374;2022-12-07T13:22:50;99491.25;;;-2.40;100.00
54407;BME280;40313;50.308;30.374;2022-12-07T13:25:21;99484.44;;;-2.42;100.00
54407;BME280;40313;50.308;30.374;2022-12-07T13:27:57;99486.13;;;-2.43;100.00
54407;BME280;40313;50.308;30.374;2022-12-07T13:30:24;99486.16;;;-2.48;100.00
54407;BME280;40313;50.308;30.374;2022-12-07T13:32:52;99484.47;;;-2.47;100.00
54407;BME280;40313;50.308;30.374;2022-12-07T13:35:34;99486.19;;;-2.51;100.00
54407;BME280;40313;50.308;30.374;2022-12-07T13:38:04;99484.47;;;-2.50;100.00
54407;BME280;40313;50.308;30.374;2022-12-07T13:40:32;99489.56;;;-2.50;100.00
54407;BME280;40313;50.308;30.374;2022-12-07T13:43:00;99486.19;;;-2.52;100.00
54407;BME280;40313;50.308;30.374;2022-12-07T13:45:29;99489.59;;;-2.53;100.00
54407;BME280;40313;50.308;30.374;2022-12-07T13:48:18;99494.69;;;-2.50;100.00
54407;BME280;40313;50.308;30.374;2022-12-07T13:50:53;99488.75;;;-2.51;100.00
54407;BME280;40313;50.308;30.374;2022-12-07T13:53:22;99484.50;;;-2.53;100.00
54407;BME280;40313;50.308;30.374;2022-12-07T13:55:49;99486.19;;;-2.52;100.00
54407;BME280;40313;50.308;30.374;2022-12-07T13:58:16;99489.63;;;-2.56;100.00
54407;BME280;40313;50.308;30.374;2022-12-07T14:00:43;99492.16;;;-2.53;100.00
54407;BME280;40313;50.308;30.374;2022-12-07T14:03:27;99498.13;;;-2.57;100.00
54407;BME280;40313;50.308;30.374;2022-12-07T14:06:15;99493.88;;;-2.54;100.00
54407;BME280;40313;50.308;30.374;2022-12-07T14:08:43;99483.66;;;-2.54;100.00
54407;BME280;40313;50.308;30.374;2022-12-07T14:11:14;99490.44;;;-2.54;100.00
54407;BME280;40313;50.308;30.374;2022-12-07T14:13:47;99485.34;;;-2.56;100.00
54407;BME280;40313;50.308;30.374;2022-12-07T14:16:24;99488.75;;;-2.54;100.00
54407;BME280;40313;50.308;30.374;2022-12-07T18:28:05;99460.59;;;-2.38;100.00
54407;BME280;40313;50.308;30.374;2022-12-07T18:30:32;99463.09;;;-2.34;100.00
54407;BME280;40313;50.308;30.374;2022-12-07T18:32:59;99457.94;;;-2.29;100.00
54407;BME280;40313;50.308;30.374;2022-12-07T18:35:25;99461.38;;;-2.27;100.00
54407;BME280;40313;50.308;30.374;2022-12-07T18:37:51;99463.91;;;-2.26;100.00
54407;BME280;40313;50.308;30.374;2022-12-07T18:40:18;99460.47;;;-2.24;100.00
54407;BME280;40313;50.308;30.374;2022-12-07T18:42:44;99468.13;;;-2.20;100.00
54407;BME280;40313;50.308;30.374;2022-12-07T18:45:12;99468.94;;;-2.16;100.00
54407;BME280;40313;50.308;30.374;2022-12-07T18:47:38;99450.22;;;-2.18;100.00
54407;BME280;40313;50.308;30.374;2022-12-07T18:50:05;99455.31;;;-2.15;100.00
54407;BME280;40313;50.308;30.374;2022-12-07T18:52:31;99452.72;;;-2.14;100.00
54407;BME280;40313;50.308;30.374;2022-12-07T18:54:58;99450.16;;;-2.12;100.00
54407;BME280;40313;50.308;30.374;2022-12-07T18:57:27;99451.91;;;-2.14;100.00
54407;BME280;40313;50.308;30.374;2022-12-07T18:59:53;99452.69;;;-2.09;100.00
54407;BME280;40313;50.308;30.374;2022-12-07T19:02:21;99447.56;;;-2.09;100.00
54407;BME280;40313;50.308;30.374;2022-12-07T19:04:48;99451.00;;;-2.09;100.00
54407;BME280;40313;50.308;30.374;2022-12-07T19:07:14;99462.88;;;-2.06;100.00
54407;BME280;40313;50.308;30.374;2022-12-07T19:09:41;99463.78;;;-2.09;100.00
54407;BME280;40313;50.308;30.374;2022-12-07T19:12:09;99464.66;;;-2.11;100.00
54407;BME280;40313;50.308;30.374;2022-12-07T19:14:36;99460.34;;;-2.09;100.00
54407;BME280;40313;50.308;30.374;2022-12-07T19:17:03;99457.78;;;-2.06;100.00
54407;BME280;40313;50.308;30.374;2022-12-07T19:19:32;99462.91;;;-2.08;100.00
54407;BME280;40313;50.308;30.374;2022-12-07T19:21:59;99456.94;;;-2.05;100.00
54407;BME280;40313;50.308;30.374;2022-12-07T19:24:25;99456.06;;;-2.04;100.00
54407;BME280;40313;50.308;30.374;2022-12-07T19:26:52;99450.09;;;-2.03;100.00
54407;BME280;40313;50.308;30.374;2022-12-07T19:29:18;99445.88;;;-2.05;100.00
54407;BME280;40313;50.308;30.374;2022-12-07T19:31:45;99439.00;;;-2.03;100.00
54407;BME280;40313;50.308;30.374;2022-12-07T19:34:12;99444.13;;;-2.02;100.00
54407;BME280;40313;50.308;30.374;2022-12-07T19:36:41;99431.31;;;-2.00;100.00
54407;BME280;40313;50.308;30.374;2022-12-07T19:39:08;99433.03;;;-2.01;100.00
54407;BME280;40313;50.308;30.374;2022-12-07T19:41:34;99442.41;;;-1.98;100.00
54407;BME280;40313;50.308;30.374;2022-12-07T19:44:02;99442.38;;;-1.97;100.00
54407;BME280;40313;50.308;30.374;2022-12-07T19:46:29;99445.78;;;-1.98;100.00
54407;BME280;40313;50.308;30.374;2022-12-07T19:48:56;99446.63;;;-1.96;100.00
54407;BME280;40313;50.308;30.374;2022-12-07T19:51:24;99443.19;;;-1.93;100.00
54407;BME280;40313;50.308;30.374;2022-12-07T19:53:52;99444.03;;;-1.91;100.00
54407;BME280;40313;50.308;30.374;2022-12-07T19:56:21;99445.75;;;-1.90;100.00
54407;BME280;40313;50.308;30.374;2022-12-07T19:58:47;99438.91;;;-1.89;100.00
54407;BME280;40313;50.308;30.374;2022-12-07T20:01:14;99439.72;;;-1.87;100.00
54407;BME280;40313;50.308;30.374;2022-12-07T20:03:40;99431.22;;;-1.88;100.00
54407;BME280;40313;50.308;30.374;2022-12-07T20:06:07;99438.06;;;-1.88;100.00
54407;BME280;40313;50.308;30.374;2022-12-07T20:08:34;99442.28;;;-1.87;100.00
54407;BME280;40313;50.308;30.374;2022-12-07T20:11:02;99449.09;;;-1.85;100.00
54407;BME280;40313;50.308;30.374;2022-12-07T20:13:49;99446.53;;;-1.85;100.00
54407;BME280;40313;50.308;30.374;2022-12-07T20:16:15;99449.09;;;-1.86;100.00
54407;BME280;40313;50.308;30.374;2022-12-07T20:18:41;99441.44;;;-1.86;100.00
54407;BME280;40313;50.308;30.374;2022-12-07T20:21:08;99448.25;;;-1.85;100.00
54407;BME280;40313;50.308;30.374;2022-12-07T20:23:34;99451.63;;;-1.83;100.00
54407;BME280;40313;50.308;30.374;2022-12-07T20:26:03;99449.91;;;-1.81;100.00
54407;BME280;40313;50.308;30.374;2022-12-07T20:28:29;99454.16;;;-1.82;100.00
54407;BME280;40313;50.308;30.374;2022-12-07T20:30:56;99451.59;;;-1.80;100.00
54407;BME280;40313;50.308;30.374;2022-12-07T20:33:22;99453.28;;;-1.79;100.00
54407;BME280;40313;50.308;30.374;2022-12-07T20:35:49;99446.47;;;-1.80;100.00
54407;BME280;40313;50.308;30.374;2022-12-07T20:38:15;99453.28;;;-1.79;100.00
54407;BME280;40313;50.308;30.374;2022-12-07T20:40:44;99461.81;;;-1.77;100.00
54407;BME280;40313;50.308;30.374;2022-12-07T20:43:12;99456.69;;;-1.76;100.00
54407;BME280;40313;50.308;30.374;2022-12-07T20:45:42;99458.38;;;-1.76;100.00
54407;BME280;40313;50.308;30.374;2022-12-07T20:48:08;99458.38;;;-1.76;100.00
54407;BME280;40313;50.308;30.374;2022-12-07T20:50:35;99466.91;;;-1.74;100.00
54407;BME280;40313;50.308;30.374;2022-12-07T20:53:01;99464.31;;;-1.72;100.00
54407;BME280;40313;50.308;30.374;2022-12-07T20:55:27;99456.63;;;-1.71;100.00
54407;BME280;40313;50.308;30.374;2022-12-07T20:57:54;99466.00;;;-1.70;100.00
54407;BME280;40313;50.308;30.374;2022-12-07T21:00:21;99466.84;;;-1.68;100.00
54407;BME280;40313;50.308;30.374;2022-12-07T21:02:48;99465.13;;;-1.67;100.00
54407;BME280;40313;50.308;30.374;2022-12-07T21:05:14;99470.22;;;-1.66;100.00
54407;BME280;40313;50.308;30.374;2022-12-07T21:07:42;99469.38;;;-1.66;100.00
54407;BME280;40313;50.308;30.374;2022-12-07T21:10:09;99463.41;;;-1.65;100.00
54407;BME280;40313;50.308;30.374;2022-12-07T21:12:35;99460.84;;;-1.64;100.00
54407;BME280;40313;50.308;30.374;2022-12-07T21:15:02;99466.78;;;-1.62;100.00
54407;BME280;40313;50.308;30.374;2022-12-07T21:17:30;99470.19;;;-1.61;100.00
54407;BME280;40313;50.308;30.374;2022-12-07T21:19:56;99463.34;;;-1.61;100.00
54407;BME280;40313;50.308;30.374;2022-12-07T21:22:22;99461.66;;;-1.62;100.00
54407;BME280;40313;50.308;30.374;2022-12-07T21:24:49;99469.34;;;-1.63;100.00
54407;BME280;40313;50.308;30.374;2022-12-07T21:27:15;99461.66;;;-1.62;100.00
54407;BME280;40313;50.308;30.374;2022-12-07T21:29:41;99470.16;;;-1.58;100.00
54407;BME280;40313;50.308;30.374;2022-12-07T21:32:08;99463.31;;;-1.58;100.00
54407;BME280;40313;50.308;30.374;2022-12-07T21:34:36;99459.88;;;-1.55;100.00
54407;BME280;40313;50.308;30.374;2022-12-07T21:37:02;99462.47;;;-1.57;100.00
54407;BME280;40313;50.308;30.374;2022-12-07T21:39:29;99465.84;;;-1.54;100.00
54407;BME280;40313;50.308;30.374;2022-12-07T21:41:55;99466.69;;;-1.52;100.00
54407;BME280;40313;50.308;30.374;2022-12-07T21:44:21;99461.56;;;-1.51;100.00
54407;BME280;40313;50.308;30.374;2022-12-07T21:46:48;99468.41;;;-1.51;100.00
54407;BME280;40313;50.308;30.374;2022-12-07T21:49:14;99460.72;;;-1.50;100.00
54407;BME280;40313;50.308;30.374;2022-12-07T21:51:42;99474.31;;;-1.48;100.00
54407;BME280;40313;50.308;30.374;2022-12-07T21:54:09;99474.31;;;-1.48;100.00
54407;BME280;40313;50.308;30.374;2022-12-07T21:56:36;99471.75;;;-1.46;100.00
54407;BME280;40313;50.308;30.374;2022-12-07T21:59:03;99470.03;;;-1.47;100.00
54407;BME280;40313;50.308;30.374;2022-12-07T22:01:31;99475.16;;;-1.44;100.00
54407;BME280;40313;50.308;30.374;2022-12-07T22:03:59;99482.81;;;-1.44;100.00
54407;BME280;40313;50.308;30.374;2022-12-07T22:06:26;99475.16;;;-1.44;100.00
54407;BME280;40313;50.308;30.374;2022-12-07T22:08:54;99481.09;;;-1.44;100.00
54407;BME280;40313;50.308;30.374;2022-12-07T22:11:21;99481.94;;;-1.43;100.00
54407;BME280;40313;50.308;30.374;2022-12-07T22:13:47;99479.38;;;-1.42;100.00
54407;BME280;40313;50.308;30.374;2022-12-07T22:16:31;99478.50;;;-1.41;100.00
54407;BME280;40313;50.308;30.374;2022-12-07T22:18:57;99477.63;;;-1.38;100.00
54407;BME280;40313;50.308;30.374;2022-12-07T22:21:23;99482.72;;;-1.36;100.00
54407;BME280;40313;50.308;30.374;2022-12-07T22:23:50;99479.34;;;-1.37;100.00
54407;BME280;40313;50.308;30.374;2022-12-07T22:26:18;99485.28;;;-1.35;100.00
54407;BME280;40313;50.308;30.374;2022-12-07T22:28:45;99477.63;;;-1.38;100.00
54407;BME280;40313;50.308;30.374;2022-12-07T22:31:12;99476.75;;;-1.35;100.00
54407;BME280;40313;50.308;30.374;2022-12-07T22:33:39;99477.63;;;-1.36;100.00
54407;BME280;40313;50.308;30.374;2022-12-07T22:36:06;99473.34;;;-1.36;100.00
54407;BME280;40313;50.308;30.374;2022-12-07T22:38:33;99473.34;;;-1.33;100.00
54407;BME280;40313;50.308;30.374;2022-12-07T22:41:06;99478.44;;;-1.33;100.00
54407;BME280;40313;50.308;30.374;2022-12-07T22:43:34;99478.41;;;-1.30;100.00
54407;BME280;40313;50.308;30.374;2022-12-07T22:46:00;99477.53;;;-1.30;100.00
54407;BME280;40313;50.308;30.374;2022-12-07T22:48:27;99477.53;;;-1.29;100.00
54407;BME280;40313;50.308;30.374;2022-12-07T22:50:53;99488.63;;;-1.28;100.00